BIENTÔT MET'MAP
version 2.0 !

Prévue avant fin octobre,
la nouvelle version sera
plus belle, plus complète
et hébergée sur un serveur
3 fois plus puissant...
et toujours gratuite !


Pas compatible ?
Essayez la version Mobile !

SE CONNECTER : | S'inscrire | Disclaimer | Découvrir Orbifly |
Code OACI :

TAF - LFPC Creil - 25 Feb 2020 17:03 UTC
Data Sources :     NOAA   


- Altitude de l'aérodrome : 291 ft
- Code IATA : CSF
- Pas de NOTAMs connus.


LFPC - Creil

Dernier METAR connu : 0000/00/00 G :25 TAF ETNG 251400Z 2515/2606 25015G25KT 9999 SCT020 TEMPO 2515/2606 4000 SHRA SHRAGS SCT025CB PROB30 TEMPO 2515/2623 26018G35KT 3000 TSRAGS BECMG 2515/2517 23020G20KT PROB40 TEMPO 2523/2606 26018G35KT 2000 SHRASN TSRAGS BECMG 2601/2603 25018G28KT
PAS DE TAF


MET'MAP, la Météo Aéronautique d'un coup d'oeil ! - Copyright ORBIFLY Décembre 2007

Développement & Programmation : Alexandra Zaïnal
Co-Développement : Marc-Olivier Méhu
Soutien technique & logistique : Manuel Goepfert
Conception & Financement : Baudouin d'Aumeries